createdAt,value
2022-08-22T00:00:13.783Z,72.17
2022-08-22T00:03:12.286Z,67.41
2022-08-22T00:03:15.539Z,70.28
2022-08-22T00:03:26.979Z,70.85
2022-08-22T00:06:16.048Z,69.29
2022-08-22T00:08:58.790Z,69.41
2022-08-22T00:11:43.014Z,68.09
2022-08-22T00:14:21.404Z,70.12
2022-08-22T00:17:01.269Z,69.36
2022-08-22T00:19:42.376Z,70.33
2022-08-22T00:22:20.396Z,71.34
2022-08-22T00:24:58.236Z,71.25
2022-08-22T00:27:33.967Z,71.81
2022-08-22T00:30:09.315Z,69.99
2022-08-22T00:32:44.946Z,69.44
2022-08-22T00:35:22.733Z,70.23
2022-08-22T00:38:03.755Z,70.50
2022-08-22T00:40:53.403Z,70.29
2022-08-22T00:44:04.815Z,69.05
2022-08-22T00:46:57.637Z,70.02
2022-08-22T00:49:49.744Z,68.26
2022-08-22T00:52:37.680Z,67.84
2022-08-22T00:55:23.972Z,68.42
2022-08-22T00:58:34.041Z,69.44
2022-08-22T01:01:08.125Z,69.21
2022-08-22T01:04:09.606Z,67.53
2022-08-22T01:06:50.633Z,69.03
2022-08-22T01:09:32.574Z,69.74
2022-08-22T01:12:26.255Z,70.06
2022-08-22T01:15:00.785Z,72.36
2022-08-22T01:17:56.469Z,70.91
2022-08-22T01:21:13.231Z,71.40
2022-08-22T01:24:38.533Z,72.93
2022-08-22T01:27:57.727Z,73.22
2022-08-22T01:30:49.451Z,73.67
2022-08-22T01:33:56.698Z,74.71
2022-08-22T01:36:47.021Z,74.65
2022-08-22T01:39:47.449Z,75.43
2022-08-22T01:42:40.760Z,73.40
2022-08-22T01:45:40.073Z,73.46
2022-08-22T01:48:13.827Z,72.72
2022-08-22T01:50:48.285Z,73.23
2022-08-22T01:53:24.817Z,73.32
2022-08-22T01:56:02.119Z,72.49
2022-08-22T01:58:34.620Z,72.78
2022-08-22T02:01:18.103Z,73.18
2022-08-22T02:04:00.510Z,73.01
2022-08-22T02:06:41.992Z,73.17
2022-08-22T02:09:24.360Z,73.34
2022-08-22T02:11:57.100Z,73.06
2022-08-22T02:14:41.563Z,72.79
2022-08-22T02:17:21.325Z,72.33
2022-08-22T02:19:59.523Z,72.12
2022-08-22T02:22:36.187Z,72.49
2022-08-22T02:25:20.400Z,73.35
2022-08-22T02:27:58.003Z,72.43
2022-08-22T02:30:43.322Z,73.16
2022-08-22T02:33:22.436Z,73.25
2022-08-22T02:35:59.850Z,71.27
2022-08-22T02:38:35.707Z,74.09
2022-08-22T02:41:13.783Z,72.77
2022-08-22T02:43:50.661Z,73.22
2022-08-22T02:46:29.364Z,71.67
2022-08-22T02:49:07.350Z,73.72
2022-08-22T02:51:47.752Z,73.43
2022-08-22T02:54:25.804Z,73.36
2022-08-22T02:57:03.410Z,75.00
2022-08-22T02:59:37.225Z,75.11
2022-08-22T03:02:33.313Z,74.16
2022-08-22T03:05:03.923Z,72.30
2022-08-22T03:07:42.093Z,70.93
2022-08-22T03:10:20.070Z,69.83
2022-08-22T03:13:00.338Z,69.21
2022-08-22T03:15:35.542Z,71.96
2022-08-22T03:18:16.338Z,70.67
2022-08-22T03:20:52.528Z,70.66
2022-08-22T03:23:29.281Z,70.94
2022-08-22T03:26:07.652Z,70.62
2022-08-22T03:28:58.903Z,71.30
2022-08-22T03:31:31.642Z,71.94
2022-08-22T03:34:22.301Z,73.02
2022-08-22T03:37:03.950Z,74.69
2022-08-22T03:39:56.184Z,73.22
2022-08-22T03:43:04.270Z,74.30
2022-08-22T03:46:10.156Z,74.87
2022-08-22T03:49:21.444Z,75.35
2022-08-22T03:52:15.069Z,75.16
2022-08-22T03:55:17.988Z,75.38
2022-08-22T03:58:12.010Z,75.06
2022-08-22T04:01:29.681Z,76.27
2022-08-22T04:04:26.251Z,77.42
2022-08-22T04:07:35.288Z,79.22
2022-08-22T04:10:26.508Z,77.65
2022-08-22T04:13:12.727Z,77.33
2022-08-22T04:16:10.117Z,76.27
2022-08-22T04:18:54.446Z,77.64
2022-08-22T04:21:43.651Z,76.85
2022-08-22T04:24:34.001Z,76.55
2022-08-22T04:27:12.091Z,75.85
2022-08-22T04:29:46.736Z,75.81
2022-08-22T04:32:21.342Z,75.57
2022-08-22T04:34:54.629Z,74.21
2022-08-22T04:37:34.666Z,74.21
2022-08-22T04:40:08.578Z,75.41
2022-08-22T04:42:41.119Z,75.38
2022-08-22T04:45:17.763Z,73.90
2022-08-22T04:47:54.434Z,75.05
2022-08-22T04:50:27.625Z,77.48
2022-08-22T04:53:10.698Z,75.79
2022-08-22T04:55:50.792Z,76.14
2022-08-22T04:58:33.304Z,76.37
2022-08-22T05:01:13.531Z,74.87
2022-08-22T05:03:48.341Z,74.47
2022-08-22T05:06:20.505Z,73.11
2022-08-22T05:08:53.964Z,72.77
2022-08-22T05:11:25.295Z,73.83
2022-08-22T05:13:58.524Z,73.31
2022-08-22T05:16:31.578Z,73.36
2022-08-22T05:19:04.250Z,73.42
2022-08-22T05:21:36.659Z,73.50
2022-08-22T05:24:10.951Z,72.85
2022-08-22T05:26:44.349Z,73.28
2022-08-22T05:29:18.477Z,72.79
2022-08-22T05:31:53.160Z,74.52
2022-08-22T05:34:24.893Z,73.17
2022-08-22T05:36:59.729Z,72.30
2022-08-22T05:39:31.117Z,73.63
2022-08-22T05:42:03.598Z,74.59
2022-08-22T05:44:35.001Z,75.12
2022-08-22T05:47:06.248Z,74.76
2022-08-22T05:49:41.450Z,74.77
2022-08-22T05:52:20.580Z,77.17
2022-08-22T05:54:58.438Z,75.64
2022-08-22T05:57:32.349Z,77.10
2022-08-22T06:00:07.886Z,76.49
2022-08-22T06:02:54.581Z,75.60
2022-08-22T06:05:28.644Z,74.94
2022-08-22T06:08:02.151Z,75.96
2022-08-22T06:10:41.000Z,75.76
2022-08-22T06:13:15.206Z,75.14
2022-08-22T06:15:51.881Z,75.78
2022-08-22T06:18:24.197Z,75.59
2022-08-22T06:20:56.483Z,75.66
2022-08-22T06:23:28.893Z,75.08
2022-08-22T06:26:01.708Z,76.17
2022-08-22T06:28:35.957Z,75.84
2022-08-22T06:31:06.243Z,76.01
2022-08-22T06:33:40.846Z,74.56
2022-08-22T06:36:31.734Z,72.81
2022-08-22T06:39:16.608Z,70.69
2022-08-22T06:41:53.831Z,70.57
2022-08-22T06:44:28.202Z,70.15
2022-08-22T06:47:02.652Z,69.14
2022-08-22T06:49:35.656Z,70.26
2022-08-22T06:52:08.301Z,72.25
2022-08-22T06:54:41.057Z,71.35
2022-08-22T06:57:26.731Z,71.09
2022-08-22T06:59:58.300Z,72.06
2022-08-22T07:02:32.018Z,70.00
2022-08-22T07:05:01.000Z,69.48
2022-08-22T07:07:30.121Z,69.93
2022-08-22T07:09:58.684Z,70.28
2022-08-22T07:12:33.054Z,69.85
2022-08-22T07:15:13.446Z,68.67
2022-08-22T07:17:50.754Z,69.27
2022-08-22T07:20:28.059Z,68.31
2022-08-22T07:23:00.607Z,68.37
2022-08-22T07:25:31.667Z,68.33
2022-08-22T07:28:17.219Z,66.05
2022-08-22T07:30:55.853Z,65.04
2022-08-22T07:33:40.370Z,64.43
2022-08-22T07:36:23.216Z,64.46
2022-08-22T07:39:11.062Z,66.46
2022-08-22T07:41:52.062Z,67.01
2022-08-22T07:44:26.987Z,68.35
2022-08-22T07:47:00.683Z,67.24
2022-08-22T07:49:33.657Z,68.79
2022-08-22T07:52:07.489Z,68.88
2022-08-22T07:54:43.030Z,68.27
2022-08-22T07:57:16.753Z,67.77
2022-08-22T07:59:49.439Z,67.27
2022-08-22T08:02:20.287Z,68.41
2022-08-22T08:04:52.676Z,68.69
2022-08-22T08:07:25.549Z,68.09
2022-08-22T08:09:59.606Z,68.45
2022-08-22T08:12:35.797Z,68.11
2022-08-22T08:15:11.030Z,65.77
2022-08-22T08:17:41.466Z,66.98
2022-08-22T08:20:13.732Z,64.84
2022-08-22T08:22:47.834Z,64.15
2022-08-22T08:25:20.612Z,63.79
2022-08-22T08:28:09.980Z,63.46
2022-08-22T08:30:45.099Z,64.56
2022-08-22T08:33:25.594Z,64.73
2022-08-22T08:36:02.962Z,64.68
2022-08-22T08:38:39.107Z,63.08
2022-08-22T08:41:49.146Z,63.18
2022-08-22T08:44:32.839Z,62.24
2022-08-22T08:47:22.371Z,62.99
2022-08-22T08:50:11.537Z,62.54
2022-08-22T08:53:04.303Z,61.91
2022-08-22T08:55:51.196Z,60.09
2022-08-22T08:58:38.022Z,60.22
2022-08-22T09:01:37.550Z,60.29
2022-08-22T09:04:31.676Z,60.34
2022-08-22T09:07:26.098Z,60.38
2022-08-22T09:10:14.401Z,62.43
2022-08-22T09:13:11.686Z,61.40
2022-08-22T09:19:24.420Z,60.26
2022-08-22T09:22:23.182Z,58.79
2022-08-22T09:25:24.626Z,60.48
2022-08-22T09:28:01.115Z,59.20
2022-08-22T09:30:54.185Z,58.55
2022-08-22T09:33:28.272Z,56.55
2022-08-22T09:36:05.050Z,57.56
2022-08-22T09:40:16.042Z,58.27
2022-08-22T09:41:54.204Z,58.07
2022-08-22T09:44:39.767Z,58.30
2022-08-22T09:47:24.627Z,59.59
2022-08-22T09:50:04.996Z,60.40
2022-08-22T09:52:54.163Z,60.18
2022-08-22T09:55:41.282Z,60.57
2022-08-22T09:58:23.598Z,61.93
2022-08-22T10:00:58.524Z,62.43
2022-08-22T10:03:53.651Z,64.29
2022-08-22T10:06:29.726Z,64.04
2022-08-22T10:09:08.988Z,63.29
2022-08-22T10:11:43.376Z,63.24
2022-08-22T10:14:22.179Z,62.10
2022-08-22T10:17:07.217Z,61.12
2022-08-22T10:19:43.616Z,60.38
2022-08-22T10:22:37.737Z,59.54
2022-08-22T10:25:22.488Z,59.44
2022-08-22T10:28:22.964Z,56.65
2022-08-22T10:31:08.472Z,57.81
2022-08-22T10:33:44.424Z,58.99
2022-08-22T10:36:17.745Z,57.27
2022-08-22T10:38:52.072Z,55.92
2022-08-22T10:41:30.758Z,55.78
2022-08-22T10:44:06.321Z,56.40
2022-08-22T10:46:42.252Z,55.56
2022-08-22T10:49:20.493Z,55.96
2022-08-22T10:52:09.722Z,53.20
2022-08-22T10:54:49.507Z,54.35
2022-08-22T10:57:57.339Z,55.71
2022-08-22T11:00:46.111Z,56.52
2022-08-22T11:03:25.068Z,53.20
2022-08-22T11:05:55.612Z,55.25
2022-08-22T11:08:56.132Z,55.00
2022-08-22T11:11:41.177Z,56.96
2022-08-22T11:14:54.521Z,54.17
2022-08-22T11:17:55.355Z,54.93
2022-08-22T11:20:31.971Z,53.71
2022-08-22T11:23:18.296Z,53.02
2022-08-22T11:25:57.531Z,53.86
2022-08-22T11:28:41.439Z,54.02
2022-08-22T11:31:22.559Z,54.56
2022-08-22T11:33:57.242Z,55.63
2022-08-22T11:36:36.101Z,55.62
2022-08-22T11:39:18.373Z,55.94
2022-08-22T11:41:58.780Z,55.77
2022-08-22T11:44:34.349Z,56.67
2022-08-22T11:47:10.044Z,54.26
2022-08-22T11:49:53.975Z,55.14
2022-08-22T11:52:30.432Z,55.08
2022-08-22T11:55:18.707Z,53.17
2022-08-22T11:57:50.010Z,53.41
2022-08-22T12:00:32.111Z,53.35
2022-08-22T12:03:36.090Z,54.83
2022-08-22T12:06:21.921Z,54.04
2022-08-22T12:09:18.534Z,52.34
2022-08-22T12:12:00.203Z,53.55
2022-08-22T12:14:35.362Z,51.17
2022-08-22T12:17:44.886Z,52.08
2022-08-22T12:20:22.177Z,51.13
2022-08-22T12:23:15.829Z,50.91
2022-08-22T12:26:03.620Z,50.17
2022-08-22T12:28:42.461Z,50.80
2022-08-22T12:31:17.579Z,49.46
2022-08-22T12:33:57.786Z,45.13
2022-08-22T12:36:59.549Z,48.62
2022-08-22T12:39:55.249Z,48.86
2022-08-22T12:42:48.965Z,48.84
2022-08-22T12:45:45.543Z,48.57
2022-08-22T12:48:34.863Z,44.28
2022-08-22T12:51:24.962Z,46.76
2022-08-22T12:54:18.882Z,48.28
2022-08-22T12:56:58.341Z,48.90
2022-08-22T12:59:32.775Z,47.70
2022-08-22T13:02:04.892Z,47.34
2022-08-22T13:04:37.028Z,47.13
2022-08-22T13:07:19.936Z,43.47
2022-08-22T13:09:55.690Z,43.52
2022-08-22T13:12:28.636Z,45.78
2022-08-22T13:15:05.823Z,43.38
2022-08-22T13:17:39.969Z,42.25
2022-08-22T13:20:19.874Z,40.78
2022-08-22T13:22:48.951Z,41.33
2022-08-22T13:25:27.040Z,39.90
2022-08-22T13:27:59.140Z,38.67
2022-08-22T13:30:34.071Z,39.70
2022-08-22T13:33:10.151Z,40.18
2022-08-22T13:35:52.393Z,40.99
2022-08-22T13:38:26.651Z,41.47
2022-08-22T13:40:58.131Z,43.54
2022-08-22T13:43:31.836Z,44.08
2022-08-22T13:46:05.843Z,44.57
2022-08-22T13:48:50.303Z,44.43
2022-08-22T13:51:26.453Z,43.33
2022-08-22T13:54:03.353Z,42.95
2022-08-22T13:56:57.549Z,42.72
2022-08-22T13:59:51.013Z,42.98
2022-08-22T14:02:43.412Z,43.70
2022-08-22T14:05:18.469Z,42.76
2022-08-22T14:07:57.134Z,43.96
2022-08-22T14:10:30.476Z,43.46
2022-08-22T14:13:32.204Z,43.93
2022-08-22T14:16:03.364Z,43.30
2022-08-22T14:18:45.693Z,42.93
2022-08-22T14:21:40.058Z,40.65
2022-08-22T14:24:17.148Z,41.78
2022-08-22T14:26:58.160Z,42.10
2022-08-22T14:29:32.052Z,43.21
2022-08-22T14:32:14.208Z,44.48
2022-08-22T14:34:49.352Z,43.97
2022-08-22T14:37:24.539Z,42.16
2022-08-22T14:39:59.141Z,43.33
2022-08-22T14:42:44.262Z,42.60
2022-08-22T14:45:18.862Z,43.05
2022-08-22T14:48:29.537Z,44.60
2022-08-22T14:50:53.396Z,43.99
2022-08-22T14:53:28.412Z,43.14
2022-08-22T14:56:02.492Z,43.96
2022-08-22T14:58:35.352Z,44.54
2022-08-22T15:01:12.499Z,44.86
2022-08-22T15:03:45.178Z,45.11
2022-08-22T15:06:31.821Z,44.83
2022-08-22T15:09:01.145Z,44.83
2022-08-22T15:11:42.171Z,44.56
2022-08-22T15:14:16.086Z,45.54
2022-08-22T15:16:53.768Z,45.00
2022-08-22T15:19:27.413Z,44.78
2022-08-22T15:22:13.610Z,44.37
2022-08-22T15:24:46.120Z,43.22
2022-08-22T15:27:19.144Z,42.98
2022-08-22T15:29:55.629Z,42.60
2022-08-22T15:32:27.504Z,42.31
2022-08-22T15:35:07.436Z,40.83
2022-08-22T15:37:55.560Z,40.38
2022-08-22T15:40:40.536Z,40.92
2022-08-22T15:43:21.178Z,42.80
2022-08-22T15:45:52.254Z,42.81
2022-08-22T15:48:36.263Z,42.02
2022-08-22T15:51:10.307Z,43.96
2022-08-22T15:56:35.445Z,43.09
2022-08-22T15:59:47.972Z,41.30
2022-08-22T16:02:30.302Z,41.96
2022-08-22T16:05:24.158Z,42.07
2022-08-22T16:08:03.793Z,41.28
2022-08-22T16:10:36.401Z,42.16
2022-08-22T16:13:33.723Z,43.79
2022-08-22T16:16:07.087Z,45.05
2022-08-22T16:19:13.612Z,45.44
2022-08-22T16:22:09.841Z,46.15
2022-08-22T16:25:10.538Z,45.92
2022-08-22T16:27:55.031Z,47.07
2022-08-22T16:30:40.513Z,46.58
2022-08-22T16:33:18.015Z,47.23
2022-08-22T16:36:24.743Z,47.18
2022-08-22T16:38:58.440Z,47.53
2022-08-22T16:41:33.688Z,47.10
2022-08-22T16:44:34.991Z,47.73
2022-08-22T16:47:18.145Z,48.53
2022-08-22T16:50:03.837Z,49.17
2022-08-22T16:53:03.870Z,49.25
2022-08-22T16:55:51.028Z,49.42
2022-08-22T16:58:57.943Z,48.71
2022-08-22T17:01:46.891Z,49.41
2022-08-22T17:04:25.374Z,48.76
2022-08-22T17:07:14.577Z,47.77
2022-08-22T17:10:18.327Z,47.32
2022-08-22T17:13:15.105Z,47.14
2022-08-22T17:16:03.338Z,47.45
2022-08-22T17:18:54.431Z,47.36
2022-08-22T17:21:27.757Z,47.81
2022-08-22T17:24:07.040Z,47.92
2022-08-22T17:26:55.122Z,47.77
2022-08-22T17:29:42.146Z,46.69
2022-08-22T17:32:17.954Z,46.23
2022-08-22T17:34:57.582Z,46.93
2022-08-22T17:37:40.311Z,47.09
2022-08-22T17:40:27.603Z,47.44
2022-08-22T17:43:10.742Z,47.32
2022-08-22T17:45:56.636Z,47.22
2022-08-22T17:48:30.544Z,47.42
2022-08-22T17:51:14.027Z,48.21
2022-08-22T17:53:51.193Z,48.30
2022-08-22T17:56:25.993Z,48.95
2022-08-22T17:59:02.067Z,49.32
2022-08-22T18:01:50.926Z,48.71
2022-08-22T18:04:27.605Z,48.41
2022-08-22T18:07:06.819Z,48.20
2022-08-22T18:09:41.291Z,49.19
2022-08-22T18:18:04.228Z,46.82
2022-08-22T18:21:51.311Z,47.20
2022-08-22T18:24:31.312Z,46.41
2022-08-22T18:27:09.789Z,46.64
2022-08-22T18:30:03.952Z,46.23
2022-08-22T18:32:41.159Z,46.08
2022-08-22T18:35:20.875Z,46.14
2022-08-22T18:37:58.600Z,46.12
2022-08-22T18:40:33.596Z,46.23
2022-08-22T18:43:14.950Z,45.95
2022-08-22T18:46:03.937Z,45.93
2022-08-22T18:48:59.308Z,45.81
2022-08-22T18:51:38.238Z,46.01
2022-08-22T18:54:36.144Z,46.37
2022-08-22T18:57:23.875Z,46.91
2022-08-22T19:00:07.239Z,46.55
2022-08-22T19:03:03.458Z,46.56
2022-08-22T19:05:48.210Z,47.53
2022-08-22T19:08:40.546Z,47.57
2022-08-22T19:11:36.493Z,47.67
2022-08-22T19:14:42.115Z,48.49
2022-08-22T19:17:59.367Z,48.51
2022-08-22T19:20:49.103Z,48.75
2022-08-22T19:23:47.518Z,48.26
2022-08-22T19:26:42.023Z,48.81
2022-08-22T19:29:44.016Z,48.73
2022-08-22T19:32:33.686Z,50.19
2022-08-22T19:35:23.442Z,50.33
2022-08-22T19:37:54.789Z,51.14
2022-08-22T19:40:49.661Z,50.71
2022-08-22T19:43:28.123Z,52.71
2022-08-22T19:45:58.986Z,53.53
2022-08-22T19:48:31.985Z,54.09
2022-08-22T19:51:15.888Z,54.50
2022-08-22T19:53:54.151Z,54.86
2022-08-22T19:56:35.664Z,53.94
2022-08-22T19:59:20.150Z,53.79
2022-08-22T20:02:03.200Z,53.59
2022-08-22T20:05:03.642Z,53.98
2022-08-22T20:07:53.032Z,54.87
2022-08-22T20:10:31.428Z,55.70
2022-08-22T20:13:08.825Z,56.16
2022-08-22T20:16:17.171Z,56.00
2022-08-22T20:19:17.022Z,54.79
2022-08-22T20:21:53.712Z,54.03
2022-08-22T20:24:34.471Z,52.53
2022-08-22T20:27:14.817Z,51.50
2022-08-22T20:29:49.974Z,51.33
2022-08-22T20:32:23.177Z,50.90
2022-08-22T20:34:57.013Z,50.67
2022-08-22T20:38:02.771Z,50.41
2022-08-22T20:40:55.543Z,49.71
2022-08-22T20:43:28.278Z,49.73
2022-08-22T20:46:08.209Z,49.73
2022-08-22T20:48:44.691Z,48.99
2022-08-22T20:51:17.918Z,48.88
2022-08-22T20:53:54.261Z,49.38
2022-08-22T20:56:36.236Z,49.86
2022-08-22T20:59:19.699Z,49.99
2022-08-22T21:01:49.898Z,49.98
2022-08-22T21:04:22.284Z,50.24
2022-08-22T21:07:00.851Z,51.03
2022-08-22T21:09:47.733Z,50.73
2022-08-22T21:12:17.831Z,51.44
2022-08-22T21:14:47.139Z,53.58
2022-08-22T21:17:25.787Z,54.44
2022-08-22T21:19:57.805Z,54.09
2022-08-22T21:22:29.287Z,53.37
2022-08-22T21:25:00.897Z,52.79
2022-08-22T21:27:34.642Z,51.31
2022-08-22T21:30:07.775Z,50.83
2022-08-22T21:32:39.491Z,51.01
2022-08-22T21:35:25.090Z,49.91
2022-08-22T21:37:54.454Z,50.21
2022-08-22T21:40:30.101Z,51.03
2022-08-22T21:43:09.600Z,50.68
2022-08-22T21:45:44.091Z,51.29
2022-08-22T21:48:38.753Z,50.12
2022-08-22T21:51:42.853Z,49.82
2022-08-22T21:54:33.575Z,49.57
2022-08-22T21:57:17.864Z,49.24
2022-08-22T21:59:51.880Z,50.36
2022-08-22T22:02:36.867Z,49.93
2022-08-22T22:05:09.511Z,49.79
2022-08-22T22:07:41.600Z,49.13
2022-08-22T22:10:13.985Z,49.64
2022-08-22T22:12:44.215Z,49.43
2022-08-22T22:15:17.713Z,49.52
2022-08-22T22:17:46.505Z,49.87
2022-08-22T22:20:16.331Z,49.02
2022-08-22T22:22:46.657Z,49.31
2022-08-22T22:25:41.034Z,49.00
2022-08-22T22:28:07.528Z,48.86
2022-08-22T22:30:37.604Z,48.50
2022-08-22T22:33:06.361Z,48.66
2022-08-22T22:35:35.382Z,48.66
2022-08-22T22:38:04.172Z,48.63
2022-08-22T22:40:32.729Z,48.60
2022-08-22T22:43:01.292Z,48.48
2022-08-22T22:45:30.024Z,48.95
2022-08-22T22:48:00.000Z,48.43
2022-08-22T22:50:28.602Z,48.70
2022-08-22T22:52:57.400Z,49.23
2022-08-22T22:55:25.902Z,48.40
2022-08-22T22:57:58.523Z,48.27
2022-08-22T23:00:30.742Z,48.45
2022-08-22T23:03:02.793Z,48.26
2022-08-22T23:05:32.782Z,48.67
2022-08-22T23:08:01.945Z,48.76
2022-08-22T23:10:31.804Z,48.68
2022-08-22T23:13:00.839Z,48.91
2022-08-22T23:15:29.408Z,49.39
2022-08-22T23:17:57.896Z,48.50
2022-08-22T23:20:28.015Z,48.82
2022-08-22T23:22:56.525Z,48.98
2022-08-22T23:25:24.912Z,48.96
2022-08-22T23:27:53.955Z,48.80
2022-08-22T23:30:22.497Z,49.00
2022-08-22T23:32:50.872Z,48.25
2022-08-22T23:35:19.678Z,48.86
2022-08-22T23:37:49.346Z,48.77
2022-08-22T23:40:17.877Z,48.90
2022-08-22T23:42:46.512Z,49.11
2022-08-22T23:45:14.951Z,49.38
2022-08-22T23:47:43.373Z,49.09
2022-08-22T23:50:12.112Z,49.03
2022-08-22T23:52:40.427Z,49.65
2022-08-22T23:55:11.176Z,52.68
2022-08-22T23:57:39.746Z,53.43
